Time;durP1;ratioP1;P1;durP2;ratioP2;P2;SDS_P1;SDS_P2;PMS_P1;PMS_P2;Temp;Humidity;BMP_temperature;BMP_pressure;BME280_temperature;BME280_humidity;BME280_pressure;Samples;Min_cycle;Max_cycle;Signal;HPM_P1;HPM_P2
2023/05/28 00:00:19;;;;;;;7.10;4.20;;;;;;;11.58;100.00;101158.34;699392;28;1450;-58
2023/05/28 00:00:41;;;;;;;7.28;4.40;;;;;;;11.58;100.00;101153.13;701046;28;1497;-58
2023/05/28 00:01:03;;;;;;;7.57;4.57;;;;;;;11.56;100.00;101155.75;700530;28;1297;-58
2023/05/28 00:01:26;;;;;;;8.00;4.45;;;;;;;11.54;100.00;101154.84;693610;28;4263;-58
2023/05/28 00:01:46;;;;;;;7.57;4.50;;;;;;;11.52;100.00;101159.25;694691;28;1318;-58
2023/05/28 00:02:07;;;;;;;7.73;4.47;;;;;;;11.54;100.00;101154.00;694041;28;1471;-58
2023/05/28 00:02:27;;;;;;;7.63;4.30;;;;;;;11.52;100.00;101154.00;696145;28;1306;-58
2023/05/28 00:02:48;;;;;;;8.53;4.70;;;;;;;11.52;100.00;101151.38;698460;28;1254;-58
2023/05/28 00:03:08;;;;;;;7.90;4.50;;;;;;;11.54;100.00;101154.84;695580;28;2588;-59
2023/05/28 00:03:31;;;;;;;8.43;4.38;;;;;;;11.52;100.00;101154.00;698633;28;993;-58
2023/05/28 00:03:51;;;;;;;7.45;4.25;;;;;;;11.53;100.00;101152.25;698896;28;1233;-58
2023/05/28 00:04:12;;;;;;;7.67;4.53;;;;;;;11.52;100.00;101153.09;696772;28;4345;-58
2023/05/28 00:04:32;;;;;;;8.23;4.30;;;;;;;11.52;100.00;101154.00;701087;28;1426;-58
2023/05/28 00:04:53;;;;;;;9.60;4.40;;;;;;;11.52;100.00;101154.00;700230;28;1439;-58
2023/05/28 00:05:13;;;;;;;8.18;4.15;;;;;;;11.52;100.00;101147.88;699539;28;1604;-58
2023/05/28 00:05:33;;;;;;;7.43;4.30;;;;;;;11.51;100.00;101152.25;700609;28;1248;-58
2023/05/28 00:05:54;;;;;;;8.52;4.40;;;;;;;11.51;100.00;101154.88;701438;28;1432;-58
2023/05/28 00:06:14;;;;;;;6.73;4.30;;;;;;;11.52;100.00;101151.38;699511;28;1545;-58
2023/05/28 00:06:35;;;;;;;7.13;3.97;;;;;;;11.52;100.00;101151.38;700555;28;1467;-58
2023/05/28 00:06:55;;;;;;;8.70;4.33;;;;;;;11.52;100.00;101156.63;701260;28;1256;-58
2023/05/28 00:07:15;;;;;;;7.82;4.60;;;;;;;11.51;100.00;101149.63;698713;28;4490;-58
2023/05/28 00:07:36;;;;;;;7.43;4.43;;;;;;;11.51;100.00;101152.25;701341;28;1308;-58
2023/05/28 00:08:00;;;;;;;8.43;4.85;;;;;;;11.50;100.00;101150.50;701582;28;1308;-58
2023/05/28 00:08:20;;;;;;;6.20;4.20;;;;;;;11.50;100.00;101150.50;699083;28;1455;-58
2023/05/28 00:08:41;;;;;;;7.47;4.60;;;;;;;11.49;100.00;101156.63;700627;28;1236;-58
2023/05/28 00:09:01;;;;;;;7.88;4.65;;;;;;;11.49;100.00;101155.75;701497;28;1308;-58
2023/05/28 00:09:22;;;;;;;7.23;4.67;;;;;;;11.50;100.00;101153.13;696540;28;1467;-58
2023/05/28 00:09:42;;;;;;;8.35;4.60;;;;;;;11.50;100.00;101150.50;698242;28;1274;-58
2023/05/28 00:10:03;;;;;;;8.80;5.07;;;;;;;11.46;100.00;101155.75;696550;28;1457;-58
2023/05/28 00:10:23;;;;;;;9.27;5.47;;;;;;;11.39;100.00;101155.78;695969;28;4583;-58
2023/05/28 00:10:44;;;;;;;8.02;5.05;;;;;;;11.43;100.00;101158.38;698050;28;1222;-58
2023/05/28 00:11:04;;;;;;;8.57;5.37;;;;;;;11.43;100.00;101158.38;695984;28;1278;-58
2023/05/28 00:11:25;;;;;;;8.63;5.27;;;;;;;11.41;100.00;101158.38;698455;28;1194;-58
2023/05/28 00:11:46;;;;;;;9.02;5.32;;;;;;;11.41;100.00;101161.00;700963;28;1179;-58
2023/05/28 00:12:07;;;;;;;8.50;5.40;;;;;;;11.38;100.00;101151.41;699484;28;1371;-60
2023/05/28 00:12:27;;;;;;;8.27;4.90;;;;;;;11.35;100.00;101153.13;701101;28;1427;-58
2023/05/28 00:12:47;;;;;;;8.43;5.17;;;;;;;11.34;100.00;101157.50;698712;28;1312;-58
2023/05/28 00:13:08;;;;;;;8.35;5.22;;;;;;;11.36;100.00;101152.25;698957;28;4399;-59
2023/05/28 00:13:30;;;;;;;7.45;4.70;;;;;;;11.35;100.00;101150.50;700179;28;1205;-57
2023/05/28 00:13:50;;;;;;;7.72;5.13;;;;;;;11.35;100.00;101155.75;700707;28;1281;-58
2023/05/28 00:14:10;;;;;;;8.65;5.70;;;;;;;11.34;100.00;101154.00;699144;28;1525;-58
2023/05/28 00:14:31;;;;;;;8.63;5.50;;;;;;;11.35;100.00;101150.50;701078;28;1245;-58
2023/05/28 00:14:52;;;;;;;9.03;5.00;;;;;;;11.35;100.00;101155.75;701054;28;1360;-58
2023/05/28 00:15:12;;;;;;;10.23;5.20;;;;;;;11.30;100.00;101155.75;699882;28;1547;-58
2023/05/28 00:15:32;;;;;;;10.13;5.47;;;;;;;11.27;100.00;101152.25;700554;28;1359;-58
2023/05/28 00:15:55;;;;;;;10.03;6.00;;;;;;;11.28;100.00;101151.38;701223;28;1454;-58
2023/05/28 00:16:16;;;;;;;8.13;5.50;;;;;;;11.31;100.00;101154.00;699017;28;4327;-58
2023/05/28 00:16:37;;;;;;;7.97;5.60;;;;;;;11.31;100.00;101154.00;698036;28;1290;-56
2023/05/28 00:16:57;;;;;;;9.13;5.53;;;;;;;11.31;100.00;101167.09;697258;28;1257;-58
2023/05/28 00:17:17;;;;;;;9.53;5.67;;;;;;;11.30;100.00;101155.75;696504;28;1637;-58
2023/05/28 00:17:38;;;;;;;9.77;5.60;;;;;;;11.24;100.00;101151.41;698252;28;1313;-58
2023/05/28 00:17:58;;;;;;;9.32;5.22;;;;;;;11.23;100.00;101149.66;697190;28;1365;-58
2023/05/28 00:18:19;;;;;;;9.50;5.10;;;;;;;11.22;100.00;101160.97;699527;28;1569;-58
2023/05/28 00:18:40;;;;;;;8.30;5.32;;;;;;;11.23;100.00;101156.63;701152;28;1248;-59
2023/05/28 00:19:02;;;;;;;8.00;5.30;;;;;;;11.23;100.00;101156.63;701007;28;1149;-58
2023/05/28 00:19:22;;;;;;;8.10;5.20;;;;;;;11.23;100.00;101154.88;699056;28;4518;-58
2023/05/28 00:19:43;;;;;;;9.33;5.03;;;;;;;11.23;100.00;101157.50;700273;28;3151;-57
2023/05/28 00:20:05;;;;;;;9.80;4.68;;;;;;;11.23;100.00;101156.63;701348;28;1292;-58
2023/05/28 00:20:26;;;;;;;9.25;4.90;;;;;;;11.22;100.00;101154.88;698951;28;1462;-58
2023/05/28 00:20:48;;;;;;;8.60;5.20;;;;;;;11.24;100.00;101150.50;700596;28;1213;-58
2023/05/28 00:21:08;;;;;;;7.53;4.95;;;;;;;11.24;100.00;101153.13;699545;28;1233;-58
2023/05/28 00:21:32;;;;;;;7.93;4.85;;;;;;;11.22;100.00;101155.75;701301;28;1383;-58
2023/05/28 00:21:52;;;;;;;9.15;5.00;;;;;;;11.20;100.00;101152.28;700730;28;1241;-58
2023/05/28 00:22:12;;;;;;;9.10;5.13;;;;;;;11.18;100.00;101154.00;698796;28;4544;-57
2023/05/28 00:22:33;;;;;;;8.50;5.28;;;;;;;11.17;100.00;101157.50;701175;28;1185;-58
2023/05/28 00:22:53;;;;;;;8.30;4.83;;;;;;;11.16;100.00;101147.91;703731;28;1392;-56
2023/05/28 00:23:14;;;;;;;7.43;4.40;;;;;;;11.16;100.00;101154.84;701268;28;1700;-58
2023/05/28 00:23:35;;;;;;;7.10;4.78;;;;;;;11.15;100.00;101151.38;703900;28;1114;-58
2023/05/28 00:23:55;;;;;;;7.90;4.70;;;;;;;11.11;100.00;101157.47;702721;28;1158;-58
2023/05/28 00:24:15;;;;;;;8.05;4.80;;;;;;;11.10;100.00;101147.88;702124;28;1438;-59
2023/05/28 00:24:36;;;;;;;7.83;4.60;;;;;;;11.08;100.00;101152.25;703674;28;1241;-58
2023/05/28 00:24:56;;;;;;;10.17;4.90;;;;;;;11.06;100.00;101148.75;700673;28;1154;-58
2023/05/28 00:25:16;;;;;;;9.27;4.87;;;;;;;11.06;100.00;101153.97;698970;28;4503;-59
2023/05/28 00:25:37;;;;;;;7.60;4.77;;;;;;;11.07;100.00;101155.72;700741;28;1181;-58
2023/05/28 00:25:57;;;;;;;7.82;4.80;;;;;;;11.05;100.00;101152.25;701569;28;1216;-58
2023/05/28 00:26:17;;;;;;;9.60;4.97;;;;;;;11.05;100.00;101153.13;699630;28;1525;-58
2023/05/28 00:26:40;;;;;;;8.25;4.60;;;;;;;11.06;100.00;101154.88;699909;28;1391;-58
2023/05/28 00:27:01;;;;;;;6.95;4.18;;;;;;;11.00;100.00;101152.22;700038;28;1162;-58
2023/05/28 00:27:21;;;;;;;7.20;4.63;;;;;;;10.97;100.00;101148.75;698093;28;2246;-58
2023/05/28 00:27:42;;;;;;;8.37;4.90;;;;;;;10.98;100.00;101147.88;700476;28;1162;-58
2023/05/28 00:28:03;;;;;;;8.05;4.43;;;;;;;10.95;100.00;101151.38;698313;28;1306;-58
2023/05/28 00:28:23;;;;;;;8.60;4.53;;;;;;;10.94;100.00;101154.84;696362;28;4361;-58
2023/05/28 00:28:43;;;;;;;9.27;4.53;;;;;;;10.94;100.00;101161.81;697753;28;1281;-58
2023/05/28 00:29:04;;;;;;;9.02;4.57;;;;;;;10.96;100.00;101157.47;695469;28;1391;-58
2023/05/28 00:29:26;;;;;;;8.27;4.70;;;;;;;10.98;100.00;101150.47;692907;28;1617;-58
2023/05/28 00:29:47;;;;;;;6.88;4.18;;;;;;;10.95;100.00;101160.94;692457;28;1324;-58
2023/05/28 00:30:07;;;;;;;7.63;4.20;;;;;;;10.94;100.00;101160.09;694873;28;1479;-58
2023/05/28 00:30:29;;;;;;;8.75;4.32;;;;;;;10.94;100.00;101151.34;693842;28;1273;-58
2023/05/28 00:30:49;;;;;;;9.82;4.70;;;;;;;10.95;100.00;101155.72;692704;28;1400;-59
2023/05/28 00:31:11;;;;;;;9.03;4.50;;;;;;;10.95;100.00;101156.59;691122;28;4705;-59
2023/05/28 00:31:31;;;;;;;7.68;4.15;;;;;;;10.95;100.00;101148.75;692003;28;1135;-59
2023/05/28 00:31:54;;;;;;;7.50;4.28;;;;;;;10.97;100.00;101159.22;695789;28;1270;-58
2023/05/28 00:32:15;;;;;;;8.63;4.47;;;;;;;10.97;100.00;101149.63;691412;28;1615;-58
2023/05/28 00:32:35;;;;;;;8.03;4.50;;;;;;;10.99;100.00;101157.47;692908;28;1251;-58
2023/05/28 00:32:56;;;;;;;7.70;4.25;;;;;;;10.98;100.00;101147.88;692619;28;1303;-58
2023/05/28 00:33:18;;;;;;;7.78;4.43;;;;;;;10.97;100.00;101144.38;687783;28;1640;-58
2023/05/28 00:33:39;;;;;;;8.90;4.63;;;;;;;10.97;100.00;101149.63;691245;28;1033;-58
2023/05/28 00:34:00;;;;;;;8.18;4.15;;;;;;;10.96;100.00;101152.25;693187;28;1401;-58
2023/05/28 00:34:24;;;;;;;6.45;4.00;;;;;;;10.95;100.00;101155.72;693361;28;4519;-58
2023/05/28 00:34:45;;;;;;;6.38;4.28;;;;;;;10.92;100.00;101153.97;694386;28;1317;-58
2023/05/28 00:35:05;;;;;;;7.03;4.20;;;;;;;10.94;100.00;101153.97;695316;28;1135;-58
2023/05/28 00:35:26;;;;;;;7.80;4.53;;;;;;;10.95;100.00;101153.09;693209;28;1468;-58
2023/05/28 00:35:46;;;;;;;8.10;4.37;;;;;;;10.90;100.00;101151.34;691906;28;1398;-58
2023/05/28 00:36:07;;;;;;;8.90;4.30;;;;;;;10.86;100.00;101149.59;690643;28;1515;-59
2023/05/28 00:36:27;;;;;;;7.60;4.35;;;;;;;10.84;100.00;101153.97;697956;28;1356;-57
2023/05/28 00:36:48;;;;;;;8.77;4.60;;;;;;;10.85;100.00;101152.22;694844;28;1130;-58
2023/05/28 00:37:08;;;;;;;8.67;4.50;;;;;;;10.86;100.00;101149.59;693469;28;5353;-59
2023/05/28 00:37:28;;;;;;;8.03;4.47;;;;;;;10.88;100.00;101149.59;698248;28;1266;-58
2023/05/28 00:37:49;;;;;;;7.57;4.40;;;;;;;10.90;100.00;101146.13;697560;28;1341;-58
2023/05/28 00:38:09;;;;;;;7.65;3.92;;;;;;;10.91;100.00;101147.00;696360;28;1484;-58
2023/05/28 00:38:30;;;;;;;7.47;4.20;;;;;;;10.92;100.00;101148.72;697656;28;1495;-58
2023/05/28 00:38:50;;;;;;;8.67;4.13;;;;;;;10.90;100.00;101143.50;695296;28;1354;-58
2023/05/28 00:39:11;;;;;;;7.40;4.37;;;;;;;10.89;100.00;101146.13;691150;28;1828;-59
2023/05/28 00:39:31;;;;;;;6.50;4.27;;;;;;;10.90;100.00;101147.88;692858;28;1251;-56
2023/05/28 00:39:51;;;;;;;6.47;4.03;;;;;;;10.89;100.00;101146.13;695137;28;1239;-58
2023/05/28 00:40:15;;;;;;;7.10;4.20;;;;;;;10.89;100.00;101138.28;693265;28;4578;-58
2023/05/28 00:40:36;;;;;;;7.18;4.13;;;;;;;10.90;100.00;101142.63;695488;28;1255;-58
2023/05/28 00:40:56;;;;;;;6.85;4.10;;;;;;;10.91;100.00;101152.25;692780;28;1366;-58
2023/05/28 00:41:22;;;;;;;7.70;4.33;;;;;;;10.88;100.00;101147.88;690888;28;1449;-58
2023/05/28 00:41:42;;;;;;;7.22;4.40;;;;;;;10.85;100.00;101142.63;692718;28;1142;-58
2023/05/28 00:42:04;;;;;;;7.90;4.50;;;;;;;10.87;100.00;101153.97;695932;28;1170;-58
2023/05/28 00:42:24;;;;;;;8.27;4.55;;;;;;;10.85;100.00;101142.63;696700;28;5132;-58
2023/05/28 00:42:45;;;;;;;8.13;4.30;;;;;;;10.83;100.00;101149.59;699219;28;1377;-58
2023/05/28 00:43:07;;;;;;;10.27;4.55;;;;;;;10.81;100.00;101147.84;699847;28;4629;-57
2023/05/28 00:43:27;;;;;;;8.63;4.57;;;;;;;10.83;100.00;101146.97;700514;28;1297;-58
2023/05/28 00:43:51;;;;;;;7.37;4.60;;;;;;;10.84;100.00;101145.22;700864;28;1241;-58
2023/05/28 00:44:12;;;;;;;7.20;4.13;;;;;;;10.82;100.00;101147.84;698294;28;1270;-58
2023/05/28 00:44:33;;;;;;;9.53;4.70;;;;;;;10.79;100.00;101145.22;697420;28;1463;-57
2023/05/28 00:44:56;;;;;;;7.83;4.63;;;;;;;10.82;100.00;101147.84;696000;28;1267;-58
2023/05/28 00:45:17;;;;;;;7.35;4.57;;;;;;;10.82;100.00;101153.06;695930;28;1238;-58
2023/05/28 00:45:37;;;;;;;7.83;4.40;;;;;;;10.77;100.00;101141.72;698378;28;1222;-58
2023/05/28 00:46:01;;;;;;;7.72;4.57;;;;;;;10.79;100.00;101147.84;695246;28;1313;-58
2023/05/28 00:46:23;;;;;;;8.48;4.60;;;;;;;10.81;100.00;101142.63;693380;28;4570;-58
2023/05/28 00:46:45;;;;;;;8.50;4.60;;;;;;;10.81;100.00;101148.72;699542;28;1347;-58
2023/05/28 00:47:06;;;;;;;9.48;4.70;;;;;;;10.82;100.00;101144.38;700049;28;1310;-58
2023/05/28 00:47:26;;;;;;;8.97;4.40;;;;;;;10.78;100.00;101145.22;698987;28;1535;-60
2023/05/28 00:47:47;;;;;;;7.88;4.43;;;;;;;10.75;100.00;101150.47;702005;28;1313;-58
2023/05/28 00:48:07;;;;;;;9.15;4.60;;;;;;;10.75;100.00;101148.72;699235;28;1601;-56
2023/05/28 00:48:30;;;;;;;7.63;4.50;;;;;;;10.75;100.00;101151.31;700377;28;1316;-58
2023/05/28 00:48:50;;;;;;;8.35;4.55;;;;;;;10.72;100.00;101151.31;699833;28;1344;-58
2023/05/28 00:49:12;;;;;;;8.60;4.43;;;;;;;10.70;100.00;101145.19;695661;28;4376;-57
2023/05/28 00:49:32;;;;;;;9.15;4.82;;;;;;;10.68;100.00;101152.19;698192;28;1487;-58
2023/05/28 00:49:55;;;;;;;8.70;4.57;;;;;;;10.69;100.00;101148.72;698039;28;1430;-58
2023/05/28 00:50:16;;;;;;;8.07;4.18;;;;;;;10.69;100.00;101157.41;695981;28;1562;-58
2023/05/28 00:50:38;;;;;;;7.20;4.22;;;;;;;10.71;100.00;101150.44;696059;28;1481;-57
2023/05/28 00:50:59;;;;;;;6.80;4.18;;;;;;;10.71;100.00;101152.19;695449;28;1278;-58
2023/05/28 00:51:19;;;;;;;7.22;4.13;;;;;;;10.71;100.00;101146.94;688394;28;1442;-58
2023/05/28 00:51:40;;;;;;;8.05;4.18;;;;;;;10.70;100.00;101156.56;688006;28;1385;-58
2023/05/28 00:52:03;;;;;;;7.30;4.15;;;;;;;10.70;100.00;101145.19;689814;28;1114;-58
2023/05/28 00:52:23;;;;;;;8.23;4.40;;;;;;;10.64;100.00;101148.69;689044;28;4339;-58
2023/05/28 00:52:48;;;;;;;7.28;4.40;;;;;;;10.61;100.00;101153.91;690532;28;1278;-58
2023/05/28 00:53:10;;;;;;;6.97;4.43;;;;;;;10.65;100.00;101153.03;691499;28;1666;-58
2023/05/28 00:53:31;;;;;;;7.15;4.20;;;;;;;10.66;100.00;101149.56;696320;28;1329;-58
2023/05/28 00:53:51;;;;;;;7.30;4.37;;;;;;;10.67;100.00;101146.06;698283;28;1408;-58
2023/05/28 00:54:11;;;;;;;7.28;4.20;;;;;;;10.66;100.00;101144.34;697109;28;1456;-58
2023/05/28 00:54:32;;;;;;;7.50;4.33;;;;;;;10.64;100.00;101150.44;696805;28;1273;-58
2023/05/28 00:54:55;;;;;;;7.40;4.40;;;;;;;10.63;100.00;101149.53;696025;28;1313;-58
2023/05/28 00:55:16;;;;;;;9.38;4.45;;;;;;;10.61;100.00;101150.44;696812;28;4606;-57
2023/05/28 00:55:36;;;;;;;7.75;4.50;;;;;;;10.59;100.00;101149.53;700126;28;1229;-57
2023/05/28 00:55:57;;;;;;;7.60;4.50;;;;;;;10.60;100.00;101146.06;697698;28;1286;-58
2023/05/28 00:56:18;;;;;;;7.15;4.18;;;;;;;10.62;100.00;101150.44;696877;28;1949;-58
2023/05/28 00:56:40;;;;;;;6.63;4.15;;;;;;;10.64;100.00;101150.44;697668;28;1325;-58
2023/05/28 00:57:01;;;;;;;6.47;4.18;;;;;;;10.64;100.00;101150.44;696016;28;1278;-58
2023/05/28 00:57:23;;;;;;;7.35;4.25;;;;;;;10.61;100.00;101151.28;693861;28;1589;-58
2023/05/28 00:57:46;;;;;;;7.60;4.38;;;;;;;10.59;100.00;101144.31;692588;28;2056;-58
2023/05/28 00:58:07;;;;;;;7.53;4.65;;;;;;;10.60;100.00;101146.91;692021;28;4401;-57
2023/05/28 00:58:28;;;;;;;10.73;4.97;;;;;;;10.57;100.00;101155.63;689594;28;1274;-58
2023/05/28 00:58:49;;;;;;;10.20;4.80;;;;;;;10.59;100.00;101150.41;686656;28;1351;-58
2023/05/28 00:59:10;;;;;;;7.10;4.30;;;;;;;10.59;100.00;101152.16;688622;28;2190;-58
2023/05/28 00:59:33;;;;;;;7.38;4.20;;;;;;;10.57;100.00;101144.31;690490;28;1192;-58
2023/05/28 00:59:57;;;;;;;8.68;4.38;;;;;;;10.57;100.00;101147.78;693923;28;1322;-58
2023/05/28 01:00:18;;;;;;;8.27;4.47;;;;;;;10.51;100.00;101144.31;694687;28;1472;-58
2023/05/28 01:00:42;;;;;;;9.23;4.72;;;;;;;10.47;100.00;101148.63;699107;28;1885;-58
2023/05/28 01:01:03;;;;;;;7.97;4.93;;;;;;;10.44;100.00;101151.25;700684;28;1383;-58
2023/05/28 01:01:26;;;;;;;8.77;4.97;;;;;;;10.42;100.00;101146.88;697647;28;4459;-58
2023/05/28 01:01:47;;;;;;;7.85;4.63;;;;;;;10.43;100.00;101149.50;697385;28;1360;-58
2023/05/28 01:02:08;;;;;;;7.78;4.43;;;;;;;10.45;100.00;101150.34;693870;28;1590;-58
2023/05/28 01:02:28;;;;;;;7.88;4.40;;;;;;;10.46;100.00;101148.63;694982;28;1329;-58
2023/05/28 01:02:49;;;;;;;7.73;4.33;;;;;;;10.44;100.00;101151.25;695220;28;1389;-58
2023/05/28 01:03:09;;;;;;;10.88;4.68;;;;;;;10.44;100.00;101148.63;693556;28;1621;-58
2023/05/28 01:03:30;;;;;;;9.20;4.37;;;;;;;10.45;100.00;101150.34;695958;28;1116;-57
2023/05/28 01:03:51;;;;;;;7.70;4.20;;;;;;;10.45;100.00;101150.34;697794;28;1403;-58
2023/05/28 01:04:11;;;;;;;7.43;4.38;;;;;;;10.43;100.00;101143.41;693806;28;4526;-57
2023/05/28 01:04:32;;;;;;;7.43;4.80;;;;;;;10.42;100.00;101142.50;698102;28;1297;-58
2023/05/28 01:04:53;;;;;;;8.80;4.60;;;;;;;10.42;100.00;101144.25;697755;28;1421;-58
2023/05/28 01:05:14;;;;;;;8.77;4.30;;;;;;;10.41;100.00;101145.97;698968;28;1544;-58
2023/05/28 01:05:35;;;;;;;7.63;4.35;;;;;;;10.41;100.00;101143.38;700491;28;1253;-58
2023/05/28 01:05:55;;;;;;;7.47;4.45;;;;;;;10.41;100.00;101143.38;701379;28;1364;-57
2023/05/28 01:06:16;;;;;;;10.65;4.90;;;;;;;10.40;100.00;101149.50;701597;28;1522;-58
2023/05/28 01:06:38;;;;;;;10.23;5.03;;;;;;;10.40;100.00;101146.88;698398;28;1344;-58
2023/05/28 01:06:59;;;;;;;8.88;4.30;;;;;;;10.42;100.00;101152.97;700512;28;1122;-58
2023/05/28 01:07:19;;;;;;;7.15;4.05;;;;;;;10.42;100.00;101149.50;697692;28;4680;-58
2023/05/28 01:07:40;;;;;;;7.22;4.40;;;;;;;10.40;100.00;101149.50;700965;28;1300;-58
2023/05/28 01:08:06;;;;;;;8.63;4.53;;;;;;;10.41;100.00;101139.88;701097;28;1338;-58
2023/05/28 01:08:27;;;;;;;7.05;4.07;;;;;;;10.40;100.00;101146.88;698210;28;1449;-59
2023/05/28 01:08:49;;;;;;;7.77;4.53;;;;;;;10.41;100.00;101145.97;698147;28;1367;-58
2023/05/28 01:09:11;;;;;;;8.13;4.40;;;;;;;10.41;100.00;101142.50;693599;28;2146;-59
2023/05/28 01:09:31;;;;;;;7.93;4.57;;;;;;;10.41;100.00;101143.38;695800;28;1376;-58
2023/05/28 01:09:52;;;;;;;8.88;4.53;;;;;;;10.41;100.00;101145.97;697018;28;1409;-58
2023/05/28 01:10:12;;;;;;;7.93;4.32;;;;;;;10.42;100.00;101142.50;691365;28;4368;-58
2023/05/28 01:10:34;;;;;;;8.33;4.37;;;;;;;10.39;100.00;101145.13;695064;28;1420;-58
2023/05/28 01:10:55;;;;;;;8.98;4.45;;;;;;;10.39;100.00;101150.34;698554;28;1535;-58
2023/05/28 01:11:18;;;;;;;7.82;4.28;;;;;;;10.40;100.00;101141.66;698862;28;1427;-58
2023/05/28 01:11:42;;;;;;;7.63;4.20;;;;;;;10.39;100.00;101145.97;700687;28;1428;-60
2023/05/28 01:12:04;;;;;;;7.32;4.10;;;;;;;10.39;100.00;101145.13;702315;28;1273;-58
2023/05/28 01:12:25;;;;;;;8.70;4.40;;;;;;;10.40;100.00;101149.50;698272;28;1468;-58
2023/05/28 01:12:49;;;;;;;8.60;4.35;;;;;;;10.39;100.00;101140.75;700313;28;1187;-58
2023/05/28 01:13:12;;;;;;;7.35;4.70;;;;;;;10.39;100.00;101142.50;695878;28;4750;-57
2023/05/28 01:13:33;;;;;;;7.68;4.50;;;;;;;10.42;100.00;101141.66;697511;28;1476;-57
2023/05/28 01:13:54;;;;;;;7.85;4.47;;;;;;;10.41;100.00;101142.50;695519;28;1409;-58
2023/05/28 01:14:16;;;;;;;7.50;4.30;;;;;;;10.41;100.00;101148.59;694764;28;1894;-58
2023/05/28 01:14:37;;;;;;;7.15;4.28;;;;;;;10.39;100.00;101145.13;694961;28;1269;-58
2023/05/28 01:14:58;;;;;;;8.05;4.20;;;;;;;10.37;100.00;101144.22;695331;28;1364;-58
2023/05/28 01:15:18;;;;;;;8.02;3.95;;;;;;;10.31;100.00;101145.03;691166;28;1564;-59
2023/05/28 01:15:40;;;;;;;7.90;4.03;;;;;;;10.26;100.00;101138.06;693097;28;1389;-57
2023/05/28 01:16:01;;;;;;;7.82;4.18;;;;;;;10.27;100.00;101145.03;694321;28;3191;-58
2023/05/28 01:16:22;;;;;;;7.97;4.37;;;;;;;10.28;100.00;101138.94;692865;28;4342;-58
2023/05/28 01:16:44;;;;;;;7.03;4.20;;;;;;;10.29;100.00;101143.31;694990;28;1424;-58
2023/05/28 01:17:06;;;;;;;7.82;4.50;;;;;;;10.29;100.00;101138.09;692357;28;1506;-58
2023/05/28 01:17:27;;;;;;;7.93;4.38;;;;;;;10.27;100.00;101137.19;693160;28;1472;-58
2023/05/28 01:17:48;;;;;;;7.75;4.20;;;;;;;10.28;100.00;101138.94;695163;28;1314;-58
2023/05/28 01:18:09;;;;;;;8.52;3.85;;;;;;;10.25;100.00;101136.34;696883;28;1292;-58
2023/05/28 01:18:31;;;;;;;8.60;3.90;;;;;;;10.27;100.00;101145.03;694968;28;1239;-58
2023/05/28 01:18:55;;;;;;;8.38;4.65;;;;;;;10.25;100.00;101137.19;694739;28;1231;-58
2023/05/28 01:19:21;;;;;;;7.97;4.18;;;;;;;10.25;100.00;101136.34;692083;28;4363;-58
2023/05/28 01:19:42;;;;;;;7.10;4.07;;;;;;;10.22;100.00;101138.03;693432;28;1443;-58
2023/05/28 01:20:05;;;;;;;7.35;4.00;;;;;;;10.19;100.00;101137.16;696652;28;1329;-58
2023/05/28 01:20:28;;;;;;;9.52;4.15;;;;;;;10.20;100.00;101139.78;696549;28;1531;-62
2023/05/28 01:20:49;;;;;;;8.88;4.60;;;;;;;10.20;100.00;101133.69;697624;28;1563;-58
2023/05/28 01:21:11;;;;;;;6.53;4.15;;;;;;;10.21;100.00;101136.28;694904;28;1515;-59
2023/05/28 01:21:31;;;;;;;7.72;4.13;;;;;;;10.21;100.00;101136.28;697292;28;1416;-58
2023/05/28 01:21:57;;;;;;;7.27;4.37;;;;;;;10.18;100.00;101136.28;694946;28;1476;-58
2023/05/28 01:22:24;;;;;;;8.40;4.20;;;;;;;10.16;100.00;101135.44;690844;28;4383;-58
2023/05/28 01:22:57;;;;;;;8.18;4.60;;;;;;;10.18;100.00;101138.91;693625;28;2237;-58
2023/05/28 01:23:20;;;;;;;7.07;4.15;;;;;;;10.20;100.00;101139.78;691388;28;1496;-58
2023/05/28 01:23:45;;;;;;;7.43;4.15;;;;;;;10.17;100.00;101138.91;689184;28;2506;-58
2023/05/28 01:24:06;;;;;;;7.80;3.90;;;;;;;10.18;100.00;101135.44;692237;28;1287;-58
2023/05/28 01:24:28;;;;;;;8.00;4.13;;;;;;;10.18;100.00;101138.91;688663;28;1227;-58
2023/05/28 01:24:51;;;;;;;8.15;4.30;;;;;;;10.19;100.00;101140.66;692472;28;1594;-58
2023/05/28 01:25:12;;;;;;;6.95;3.95;;;;;;;10.17;100.00;101144.97;692491;28;4520;-59
2023/05/28 01:25:38;;;;;;;6.38;3.90;;;;;;;10.17;100.00;101139.75;698025;28;2094;-58
2023/05/28 01:26:02;;;;;;;8.30;4.28;;;;;;;10.19;100.00;101142.38;697560;28;1380;-60
2023/05/28 01:26:23;;;;;;;7.53;4.18;;;;;;;10.19;100.00;101139.75;695262;28;1721;-59
2023/05/28 01:26:44;;;;;;;8.02;4.43;;;;;;;10.19;100.00;101140.66;695953;28;1370;-61
2023/05/28 01:27:06;;;;;;;7.93;4.40;;;;;;;10.16;100.00;101140.66;692363;28;1318;-59
2023/05/28 01:27:27;;;;;;;7.57;4.38;;;;;;;10.16;100.00;101138.03;691404;28;1549;-58
2023/05/28 01:27:47;;;;;;;8.60;4.40;;;;;;;10.16;100.00;101131.91;692399;28;1168;-58
2023/05/28 01:28:14;;;;;;;7.13;4.00;;;;;;;10.18;100.00;101135.44;689702;28;4412;-59
2023/05/28 01:28:35;;;;;;;9.57;4.43;;;;;;;10.18;100.00;101140.66;692884;28;1619;-58
2023/05/28 01:28:56;;;;;;;10.20;4.63;;;;;;;10.17;100.00;101137.16;693951;28;1277;-58
2023/05/28 01:29:18;;;;;;;7.65;4.07;;;;;;;10.18;100.00;101141.50;692409;28;1509;-58
2023/05/28 01:29:39;;;;;;;7.60;4.22;;;;;;;10.16;100.00;101138.03;690906;28;1439;-59
2023/05/28 01:30:01;;;;;;;7.50;4.33;;;;;;;10.13;100.00;101143.22;693642;28;1377;-59
2023/05/28 01:30:21;;;;;;;7.97;4.15;;;;;;;10.14;100.00;101134.53;693299;28;1732;-59
2023/05/28 01:30:43;;;;;;;8.00;4.07;;;;;;;10.15;100.00;101143.22;692317;28;1442;-58
2023/05/28 01:31:03;;;;;;;7.60;4.00;;;;;;;10.15;100.00;101138.88;692134;28;1321;-57
2023/05/28 01:31:24;;;;;;;8.27;4.10;;;;;;;10.16;100.00;101137.13;690527;28;4456;-59
2023/05/28 01:31:45;;;;;;;8.47;4.40;;;;;;;10.15;100.00;101138.88;691814;28;1278;-59
2023/05/28 01:32:05;;;;;;;7.63;4.40;;;;;;;10.15;100.00;101138.88;689722;28;1350;-58
2023/05/28 01:32:25;;;;;;;7.50;4.20;;;;;;;10.14;100.00;101137.13;690851;28;1546;-58
2023/05/28 01:32:46;;;;;;;7.10;4.20;;;;;;;10.14;100.00;101139.75;695473;28;1322;-59
2023/05/28 01:33:06;;;;;;;7.37;4.10;;;;;;;10.15;100.00;101135.38;691559;28;1485;-58
2023/05/28 01:33:27;;;;;;;7.13;4.30;;;;;;;10.13;100.00;101138.00;689618;28;1480;-59
2023/05/28 01:33:48;;;;;;;7.15;4.07;;;;;;;10.14;100.00;101139.75;692499;28;1356;-58
2023/05/28 01:34:10;;;;;;;7.53;4.37;;;;;;;10.13;100.00;101139.75;693044;28;4557;-58
2023/05/28 01:34:30;;;;;;;6.80;4.32;;;;;;;10.12;100.00;101136.28;691573;28;1405;-59
2023/05/28 01:34:51;;;;;;;6.73;4.10;;;;;;;10.12;100.00;101140.59;692855;28;1361;-59
2023/05/28 01:35:12;;;;;;;7.18;4.00;;;;;;;10.11;100.00;101139.75;692999;28;1535;-58
2023/05/28 01:35:37;;;;;;;7.80;4.00;;;;;;;10.10;100.00;101140.59;692989;28;1231;-58
2023/05/28 01:36:01;;;;;;;8.63;4.25;;;;;;;10.08;100.00;101131.00;696557;28;1377;-58
2023/05/28 01:36:37;;;;;;;7.15;3.95;;;;;;;10.04;100.00;101146.66;695264;28;2046;-58
2023/05/28 01:37:01;;;;;;;7.20;4.38;;;;;;;10.01;100.00;101137.94;701028;28;1671;-59
2023/05/28 01:37:24;;;;;;;8.40;4.13;;;;;;;9.98;100.00;101140.53;695905;28;4510;-59
2023/05/28 01:37:49;;;;;;;8.57;4.20;;;;;;;9.97;100.00;101139.69;694880;28;1393;-58
2023/05/28 01:38:12;;;;;;;8.40;4.47;;;;;;;9.96;100.00;101144.91;690856;28;1574;-58
2023/05/28 01:38:36;;;;;;;8.18;4.40;;;;;;;9.96;100.00;101139.66;692732;28;1180;-62
2023/05/28 01:39:02;;;;;;;7.18;4.22;;;;;;;9.95;100.00;101143.13;695005;28;1376;-58
2023/05/28 01:39:26;;;;;;;7.20;4.00;;;;;;;9.97;100.00;101141.41;693859;28;1514;-58
2023/05/28 01:39:51;;;;;;;7.32;4.00;;;;;;;9.95;100.00;101138.78;693713;28;1448;-58
2023/05/28 01:40:12;;;;;;;7.75;4.40;;;;;;;9.95;100.00;101138.78;693631;28;4549;-59
2023/05/28 01:40:34;;;;;;;7.78;4.57;;;;;;;9.96;100.00;101134.44;694925;28;1132;-58
2023/05/28 01:40:55;;;;;;;8.52;4.30;;;;;;;9.93;100.00;101137.91;696916;28;1531;-58
2023/05/28 01:41:17;;;;;;;8.02;4.28;;;;;;;9.94;100.00;101136.16;697023;28;1568;-58